Terminal Aerodrome Forecast
Issued by NWS

Home | Current Version | Previous Version | Text Only | Print | Product List | Glossary On
Versions: 1 2 3 4 5 6 7 8 9 10 11 12 13 14 15 16 17 18 19 20
000
FTUS42 KMLB 021512 AAA
TAFSFB
TAF AMD
KSFB 021512Z 0215/0312 VRB03KT 1/2SM FG OVC002
      TEMPO 0215/0216 4SM BR OVC006
     FM021600 05006KT P6SM BKN015
     FM021800 05006KT P6SM SCT035
     FM030000 06005KT P6SM SCT040 BKN250
     FM030500 02004KT 5SM BR SCT003
      TEMPO 0308/0312 1SM BR BKN002=

USA.gov is the U.S. government's official web portal to all federal, state and local government web resources and services.